Time;durP1;ratioP1;P1;durP2;ratioP2;P2;SDS_P1;SDS_P2;PMS_P1;PMS_P2;Temp;Humidity;BMP_temperature;BMP_pressure;BME280_temperature;BME280_humidity;BME280_pressure;Samples;Min_cycle;Max_cycle;Signal;HPM_P1;HPM_P2
2023/08/11 00:02:46;;;;;;;;;;;;;;;13.88;68.79;101839.55;108993;1259;59388;-90
2023/08/11 00:05:28;;;;;;;;;;;;;;;13.92;68.78;101842.52;108870;1258;124961;-89
2023/08/11 00:08:01;;;;;;;;;;;;;;;13.94;68.75;101845.02;108884;1259;74792;-89
2023/08/11 00:10:28;;;;;;;;;;;;;;;13.96;68.76;101839.96;109013;1255;125076;-89
2023/08/11 00:13:14;;;;;;;;;;;;;;;13.98;68.66;101840.05;109000;1255;73552;-88
2023/08/11 00:15:43;;;;;;;;;;;;;;;14.01;68.71;101838.88;109147;1256;59408;-88
2023/08/11 00:18:16;;;;;;;;;;;;;;;14.03;68.67;101840.16;109058;1255;60693;-88
2023/08/11 00:21:05;;;;;;;;;;;;;;;14.05;68.60;101840.38;109132;1255;74458;-88
2023/08/11 00:23:32;;;;;;;;;;;;;;;14.07;68.57;101841.69;108918;1254;124349;-84
2023/08/11 00:26:17;;;;;;;;;;;;;;;14.09;68.61;101841.74;109210;1253;73098;-89
2023/08/11 00:28:44;;;;;;;;;;;;;;;14.12;68.72;101844.84;109333;1253;124053;-89
2023/08/11 00:31:13;;;;;;;;;;;;;;;14.15;68.62;101848.63;109275;1253;59016;-88
2023/08/11 00:33:41;;;;;;;;;;;;;;;14.16;68.67;101847.23;109469;1253;73351;-88
2023/08/11 00:36:21;;;;;;;;;;;;;;;14.17;68.60;101847.63;109457;1253;68266;-87
2023/08/11 00:39:12;;;;;;;;;;;;;;;14.19;68.71;101849.46;109443;1253;71091;-88
2023/08/11 00:41:40;;;;;;;;;;;;;;;14.22;68.72;101849.17;109096;1254;124335;-88
2023/08/11 00:44:13;;;;;;;;;;;;;;;14.21;68.67;101851.80;109215;1253;60130;-89
2023/08/11 00:46:45;;;;;;;;;;;;;;;14.20;68.75;101854.77;109350;1253;124146;-90
2023/08/11 00:49:14;;;;;;;;;;;;;;;14.19;68.66;101856.34;109181;1254;67082;-86
2023/08/11 00:51:41;;;;;;;;;;;;;;;14.18;68.71;101859.65;109193;1253;72487;-87
2023/08/11 00:54:10;;;;;;;;;;;;;;;14.16;68.66;101862.95;109070;1254;124199;-89
2023/08/11 00:56:41;;;;;;;;;;;;;;;14.13;68.70;101861.29;109213;1254;59314;-87
2023/08/11 00:59:23;;;;;;;;;;;;;;;14.11;68.82;101859.81;108969;1253;124167;-87
2023/08/11 01:01:57;;;;;;;;;;;;;;;14.11;68.97;101857.16;109161;1253;67472;-87
2023/08/11 01:04:33;;;;;;;;;;;;;;;14.10;69.08;101854.85;109024;1253;124531;-87
2023/08/11 01:07:03;;;;;;;;;;;;;;;14.10;69.10;101854.84;109158;1253;59396;-85
2023/08/11 01:09:30;;;;;;;;;;;;;;;14.08;69.11;101852.83;109148;1259;59875;-86
2023/08/11 01:12:04;;;;;;;;;;;;;;;14.06;69.07;101852.26;109107;1254;124378;-86
2023/08/11 01:14:37;;;;;;;;;;;;;;;14.04;69.07;101850.77;109385;1253;65295;-86
2023/08/11 01:17:06;;;;;;;;;;;;;;;14.00;68.99;101851.73;109258;1253;124247;-85
2023/08/11 01:19:34;;;;;;;;;;;;;;;13.96;69.07;101846.48;109357;1253;59359;-86
2023/08/11 01:22:11;;;;;;;;;;;;;;;13.92;69.14;101844.09;109265;1253;124397;-86
2023/08/11 01:24:38;;;;;;;;;;;;;;;13.90;69.26;101841.73;109260;1253;73440;-87
2023/08/11 01:27:06;;;;;;;;;;;;;;;13.86;69.40;101835.26;109177;1254;65891;-85
2023/08/11 01:29:39;;;;;;;;;;;;;;;13.82;69.41;101835.52;109283;1253;124645;-87
2023/08/11 01:32:21;;;;;;;;;;;;;;;13.79;69.42;101836.33;109335;1254;59070;-89
2023/08/11 01:35:05;;;;;;;;;;;;;;;13.76;69.35;101840.29;109173;1254;124391;-84
2023/08/11 01:37:37;;;;;;;;;;;;;;;13.75;69.29;101842.20;109118;1253;73965;-88
2023/08/11 01:40:14;;;;;;;;;;;;;;;13.74;69.21;101838.82;109196;1253;124401;-89
2023/08/11 01:42:41;;;;;;;;;;;;;;;13.76;69.19;101838.70;109190;1254;70294;-84
2023/08/11 01:45:08;;;;;;;;;;;;;;;13.76;69.24;101836.23;109198;1254;59086;-85
2023/08/11 01:47:36;;;;;;;;;;;;;;;13.76;69.26;101830.94;109049;1254;124521;-84
2023/08/11 01:50:04;;;;;;;;;;;;;;;13.77;69.36;101831.51;109083;1253;74712;-86
2023/08/11 01:52:33;;;;;;;;;;;;;;;13.79;69.34;101830.83;109039;1254;124828;-84
2023/08/11 01:55:00;;;;;;;;;;;;;;;13.80;69.40;101829.46;109125;1253;71122;-84
2023/08/11 01:57:56;;;;;;;;;;;;;;;13.80;69.32;101827.00;109141;1254;59358;-86
2023/08/11 02:00:25;;;;;;;;;;;;;;;13.82;69.35;101827.05;109184;1253;59379;-84
2023/08/11 02:02:52;;;;;;;;;;;;;;;13.84;69.20;101825.52;109140;1253;75198;-84
2023/08/11 02:05:24;;;;;;;;;;;;;;;13.86;69.13;101822.38;109128;1253;125091;-83
2023/08/11 02:07:51;;;;;;;;;;;;;;;13.87;69.11;101822.95;109350;1255;72669;-83
2023/08/11 02:10:22;;;;;;;;;;;;;;;13.88;68.96;101821.23;109038;1253;125456;-84
2023/08/11 02:12:56;;;;;;;;;;;;;;;13.89;68.92;101819.65;109166;1254;59901;-84
2023/08/11 02:15:24;;;;;;;;;;;;;;;13.90;69.02;101823.23;109050;1253;75720;-84
2023/08/11 02:17:59;;;;;;;;;;;;;;;13.93;68.92;101823.65;109003;1253;125587;-83
2023/08/11 02:20:29;;;;;;;;;;;;;;;13.94;68.86;101827.73;109233;1253;71422;-85
2023/08/11 02:22:56;;;;;;;;;;;;;;;13.97;68.89;101823.22;109272;1253;124775;-86
2023/08/11 02:25:25;;;;;;;;;;;;;;;13.99;68.79;101822.41;109208;1253;59956;-85
2023/08/11 02:27:52;;;;;;;;;;;;;;;14.01;68.66;101821.77;109114;1253;125041;-85
2023/08/11 02:30:21;;;;;;;;;;;;;;;14.02;68.66;101820.55;109214;1253;65514;-83
2023/08/11 02:32:55;;;;;;;;;;;;;;;14.03;68.51;101825.16;109130;1253;71410;-83
2023/08/11 02:35:30;;;;;;;;;;;;;;;14.05;68.45;101827.14;109004;1253;125414;-83
2023/08/11 02:37:57;;;;;;;;;;;;;;;14.06;68.34;101828.26;109391;1253;60240;-84
2023/08/11 02:40:26;;;;;;;;;;;;;;;14.05;68.09;101831.75;109018;1256;123874;-84
2023/08/11 02:42:56;;;;;;;;;;;;;;;14.05;68.09;101833.88;109180;1254;65865;-82
2023/08/11 02:45:23;;;;;;;;;;;;;;;14.05;67.96;101835.46;109095;1254;74019;-84
2023/08/11 02:47:51;;;;;;;;;;;;;;;14.06;68.00;101837.26;109221;1254;124732;-85
2023/08/11 02:50:28;;;;;;;;;;;;;;;14.07;67.96;101834.98;109313;1253;58935;-86
2023/08/11 02:52:56;;;;;;;;;;;;;;;14.08;68.01;101835.73;109071;1253;124322;-85
2023/08/11 02:55:31;;;;;;;;;;;;;;;14.07;67.88;101833.75;109233;1253;65630;-86
2023/08/11 02:58:04;;;;;;;;;;;;;;;14.04;67.92;101834.91;109079;1254;123504;-85
2023/08/11 03:00:33;;;;;;;;;;;;;;;14.02;67.95;101839.59;109175;1256;59217;-87
2023/08/11 03:03:07;;;;;;;;;;;;;;;13.99;67.97;101839.00;109206;1253;59140;-88
2023/08/11 03:05:41;;;;;;;;;;;;;;;13.95;68.04;101834.83;109089;1253;124330;-86
2023/08/11 03:08:22;;;;;;;;;;;;;;;13.92;67.96;101834.92;109312;1254;66380;-86
2023/08/11 03:10:55;;;;;;;;;;;;;;;13.86;68.04;101832.62;109017;1255;124334;-87
2023/08/11 03:13:29;;;;;;;;;;;;;;;13.79;68.13;101831.20;109022;1255;59016;-88
2023/08/11 03:16:09;;;;;;;;;;;;;;;13.73;68.15;101838.61;109011;1259;124569;-87
2023/08/11 03:18:37;;;;;;;;;;;;;;;13.68;68.34;101838.61;109455;1253;73426;-86
2023/08/11 03:21:04;;;;;;;;;;;;;;;13.65;68.62;101839.05;109263;1254;65541;-86
2023/08/11 03:23:31;;;;;;;;;;;;;;;13.63;68.77;101835.64;109288;1253;124594;-86
2023/08/11 03:26:04;;;;;;;;;;;;;;;13.60;68.83;101834.87;109182;1253;59319;-86
2023/08/11 03:28:33;;;;;;;;;;;;;;;13.59;68.93;101829.73;109093;1254;124805;-85
2023/08/11 03:31:01;;;;;;;;;;;;;;;13.57;68.92;101830.72;109187;1253;74712;-85
2023/08/11 03:33:30;;;;;;;;;;;;;;;13.55;68.93;101827.11;109302;1254;67071;-83
2023/08/11 03:35:59;;;;;;;;;;;;;;;13.52;68.95;101830.92;109321;1253;124238;-87
2023/08/11 03:38:58;;;;;;;;;;;;;;;13.53;69.10;101827.77;109419;1255;58922;-90
2023/08/11 03:46:05;;;;;;;;;;;;;;;13.51;69.23;101837.40;109021;1261;74287;-91
2023/08/11 03:52:57;;;;;;;;;;;;;;;13.46;69.50;101843.77;108137;1271;71500;-90
2023/08/11 03:55:51;;;;;;;;;;;;;;;13.44;69.49;101844.76;107988;1272;59205;-87
2023/08/11 03:58:31;;;;;;;;;;;;;;;13.43;69.48;101845.27;107839;1273;124548;-87
2023/08/11 04:01:01;;;;;;;;;;;;;;;13.43;69.54;101850.92;107664;1273;74834;-85
2023/08/11 04:03:30;;;;;;;;;;;;;;;13.48;69.71;101850.91;107794;1274;66069;-85
2023/08/11 04:05:59;;;;;;;;;;;;;;;13.52;69.64;101850.66;107652;1274;124072;-85
2023/08/11 04:08:26;;;;;;;;;;;;;;;13.58;69.84;101856.86;107791;1273;59181;-87
2023/08/11 04:10:59;;;;;;;;;;;;;;;13.70;69.91;101859.32;107708;1273;124205;-86
2023/08/11 04:13:32;;;;;;;;;;;;;;;14.34;71.20;101855.86;107765;1273;73535;-87
2023/08/11 04:15:59;;;;;;;;;;;;;;;15.17;70.55;101856.05;107740;1273;124395;-87
2023/08/11 04:18:28;;;;;;;;;;;;;;;15.87;70.24;101855.66;107756;1274;72705;-87
2023/08/11 04:21:05;;;;;;;;;;;;;;;17.48;71.02;101848.21;107602;1279;59384;-86
2023/08/11 04:23:32;;;;;;;;;;;;;;;19.55;69.35;101844.07;108259;1268;125075;-85
2023/08/11 04:26:11;;;;;;;;;;;;;;;21.11;66.64;101838.59;108301;1265;74473;-85
2023/08/11 04:28:47;;;;;;;;;;;;;;;22.44;64.19;101839.89;108626;1256;124694;-85
2023/08/11 04:31:23;;;;;;;;;;;;;;;23.76;62.14;101842.26;109340;1254;72814;-84
2023/08/11 04:33:50;;;;;;;;;;;;;;;24.82;60.02;101836.62;109043;1254;59201;-84
2023/08/11 04:36:17;;;;;;;;;;;;;;;25.69;58.04;101835.74;109276;1254;124536;-84
2023/08/11 04:42:42;;;;;;;;;;;;;;;25.25;53.02;101843.80;109264;1254;123999;-87
2023/08/11 04:45:10;;;;;;;;;;;;;;;24.89;53.69;101839.56;109148;1253;73302;-83
2023/08/11 04:47:37;;;;;;;;;;;;;;;25.88;53.67;101840.75;108994;1254;125719;-83
2023/08/11 04:50:08;;;;;;;;;;;;;;;27.24;52.96;101840.39;109133;1256;60261;-85
2023/08/11 04:55:59;;;;;;;;;;;;;;;30.03;49.37;101845.13;109614;1253;58880;-89
2023/08/11 04:58:29;;;;;;;;;;;;;;;31.06;47.67;101845.86;109202;1253;124814;-84
2023/08/11 05:00:58;;;;;;;;;;;;;;;31.87;46.30;101842.95;109121;1254;59001;-85
2023/08/11 05:03:32;;;;;;;;;;;;;;;32.65;45.06;101838.30;109285;1254;59245;-86
2023/08/11 05:05:59;;;;;;;;;;;;;;;33.30;43.57;101838.58;109187;1254;123743;-84
2023/08/11 05:08:26;;;;;;;;;;;;;;;33.84;42.48;101839.11;109371;1254;59230;-84
2023/08/11 05:10:53;;;;;;;;;;;;;;;34.42;41.14;101839.66;109050;1253;124050;-84
2023/08/11 05:13:23;;;;;;;;;;;;;;;34.95;39.93;101841.84;109363;1253;59071;-86
2023/08/11 05:15:50;;;;;;;;;;;;;;;35.38;38.73;101839.80;109089;1254;59947;-86
2023/08/11 05:18:23;;;;;;;;;;;;;;;35.79;37.88;101837.77;109266;1254;123977;-85
2023/08/11 05:20:51;;;;;;;;;;;;;;;36.18;36.91;101830.32;109393;1254;58961;-85
2023/08/11 05:23:20;;;;;;;;;;;;;;;36.61;36.01;101823.80;109261;1253;124480;-84
2023/08/11 05:25:57;;;;;;;;;;;;;;;36.96;35.37;101829.25;109240;1255;59037;-86
2023/08/11 05:28:30;;;;;;;;;;;;;;;37.43;34.52;101832.05;109084;1253;124490;-86
2023/08/11 05:30:57;;;;;;;;;;;;;;;37.60;33.64;101828.10;109358;1253;64446;-85
2023/08/11 05:33:33;;;;;;;;;;;;;;;37.45;33.11;101831.36;109022;1254;59078;-86
2023/08/11 05:36:04;;;;;;;;;;;;;;;37.09;32.37;101832.07;108973;1254;124069;-86
2023/08/11 05:38:31;;;;;;;;;;;;;;;36.09;31.49;101833.25;109137;1254;58989;-86
2023/08/11 05:40:58;;;;;;;;;;;;;;;34.58;31.37;101829.95;109101;1253;124180;-85
2023/08/11 05:43:31;;;;;;;;;;;;;;;32.99;31.64;101825.45;109322;1253;65725;-85
2023/08/11 05:45:58;;;;;;;;;;;;;;;31.53;32.11;101831.27;109008;1254;124845;-85
2023/08/11 05:48:25;;;;;;;;;;;;;;;30.30;32.72;101834.89;109195;1253;62759;-84
2023/08/11 05:50:53;;;;;;;;;;;;;;;29.27;33.55;101838.40;109170;1254;59372;-84
2023/08/11 05:53:20;;;;;;;;;;;;;;;28.38;34.31;101841.20;109006;1256;124226;-84
2023/08/11 05:55:47;;;;;;;;;;;;;;;27.58;34.92;101843.44;109294;1253;74221;-89
2023/08/11 05:58:19;;;;;;;;;;;;;;;26.88;35.53;101845.13;109086;1253;124231;-86
2023/08/11 06:00:48;;;;;;;;;;;;;;;26.19;35.96;101844.58;109377;1253;71709;-89
2023/08/11 06:03:15;;;;;;;;;;;;;;;25.57;36.58;101843.38;109171;1256;59026;-89
2023/08/11 06:05:46;;;;;;;;;;;;;;;25.05;37.12;101847.56;109268;1253;123994;-89
2023/08/11 06:08:14;;;;;;;;;;;;;;;24.59;38.10;101852.98;109333;1256;73422;-90
2023/08/11 06:10:41;;;;;;;;;;;;;;;24.26;38.74;101853.45;109221;1253;124053;-90
2023/08/11 06:13:10;;;;;;;;;;;;;;;23.93;39.14;101852.66;109085;1254;71412;-89
2023/08/11 06:15:40;;;;;;;;;;;;;;;23.63;39.67;101855.86;109094;1254;58952;-87
2023/08/11 06:18:07;;;;;;;;;;;;;;;23.31;40.05;101853.15;107978;1254;1427127;-87
2023/08/11 06:20:42;;;;;;;;;;;;;;;23.03;40.37;101857.54;109283;1254;75189;-88
2023/08/11 06:23:09;;;;;;;;;;;;;;;22.81;40.76;101859.33;108959;1257;124127;-88
2023/08/11 06:26:08;;;;;;;;;;;;;;;22.62;41.19;101863.76;109176;1255;72644;-86
2023/08/11 06:28:36;;;;;;;;;;;;;;;22.47;41.38;101867.27;109260;1254;124340;-89
2023/08/11 06:31:03;;;;;;;;;;;;;;;22.47;41.75;101865.29;109028;1254;60100;-86
2023/08/11 06:33:31;;;;;;;;;;;;;;;22.49;41.76;101866.17;109108;1254;73095;-88
2023/08/11 06:35:59;;;;;;;;;;;;;;;22.57;42.02;101862.92;109047;1259;124013;-88
2023/08/11 06:38:32;;;;;;;;;;;;;;;22.65;41.87;101863.55;109200;1254;72547;-87
2023/08/11 06:40:59;;;;;;;;;;;;;;;22.64;41.85;101863.56;108915;1254;124189;-86
2023/08/11 06:43:41;;;;;;;;;;;;;;;22.67;41.98;101866.95;109126;1254;59329;-85
2023/08/11 06:46:09;;;;;;;;;;;;;;;22.77;41.96;101864.89;109074;1253;124266;-86
2023/08/11 06:48:39;;;;;;;;;;;;;;;22.86;41.82;101864.29;109165;1254;66997;-86
2023/08/11 06:51:12;;;;;;;;;;;;;;;22.95;41.96;101865.29;109415;1253;71376;-87
2023/08/11 06:53:40;;;;;;;;;;;;;;;23.13;41.59;101861.77;109115;1254;123026;-87
2023/08/11 06:56:14;;;;;;;;;;;;;;;23.29;41.45;101861.95;109262;1254;59222;-88
2023/08/11 06:58:47;;;;;;;;;;;;;;;23.43;41.39;101866.66;109059;1254;124111;-89
2023/08/11 07:01:17;;;;;;;;;;;;;;;23.49;41.38;101867.66;109131;1253;67089;-88
2023/08/11 07:03:46;;;;;;;;;;;;;;;23.65;41.38;101868.20;109186;1255;72920;-84
2023/08/11 07:06:13;;;;;;;;;;;;;;;23.90;41.54;101866.13;109131;1259;123901;-85
2023/08/11 07:08:40;;;;;;;;;;;;;;;24.09;41.42;101863.20;109131;1257;60107;-84
2023/08/11 07:11:07;;;;;;;;;;;;;;;24.23;41.52;101861.73;109254;1254;124129;-86
2023/08/11 07:13:42;;;;;;;;;;;;;;;24.29;41.27;101863.64;109179;1253;67249;-86
2023/08/11 07:16:22;;;;;;;;;;;;;;;24.30;41.04;101858.08;109301;1253;124603;-87
2023/08/11 07:18:49;;;;;;;;;;;;;;;24.22;40.90;101859.42;109328;1254;59112;-87
2023/08/11 07:21:17;;;;;;;;;;;;;;;24.08;40.43;101863.21;109314;1254;59173;-87
2023/08/11 07:23:44;;;;;;;;;;;;;;;23.91;40.49;101864.50;109192;1256;124329;-86
2023/08/11 07:26:12;;;;;;;;;;;;;;;23.79;40.55;101865.18;109123;1254;65764;-87
2023/08/11 07:28:47;;;;;;;;;;;;;;;23.69;40.74;101867.78;109051;1254;124222;-86
2023/08/11 07:31:16;;;;;;;;;;;;;;;23.68;40.86;101869.60;109214;1256;59252;-86
2023/08/11 07:33:50;;;;;;;;;;;;;;;23.77;40.75;101868.25;109288;1254;59256;-86
2023/08/11 07:36:20;;;;;;;;;;;;;;;23.92;40.72;101866.13;108977;1254;123993;-86
2023/08/11 07:38:49;;;;;;;;;;;;;;;24.01;40.34;101868.33;109038;1257;65718;-87
2023/08/11 07:41:26;;;;;;;;;;;;;;;;;;;;;
2023/08/11 07:43:56;;;;;;;;;;;;;;;24.16;39.90;101867.41;109151;1256;59458;-87
2023/08/11 07:46:25;;;;;;;;;;;;;;;24.23;39.99;101870.52;109040;1255;124997;-87
2023/08/11 07:48:55;;;;;;;;;;;;;;;24.28;39.92;101868.14;109297;1256;74419;-84
2023/08/11 07:51:23;;;;;;;;;;;;;;;24.26;39.75;101871.92;109122;1254;66869;-88
2023/08/11 07:53:51;;;;;;;;;;;;;;;24.23;39.50;101872.33;108865;1256;124346;-87
2023/08/11 07:56:19;;;;;;;;;;;;;;;24.18;39.62;101874.73;109050;1255;59321;-87
2023/08/11 07:58:47;;;;;;;;;;;;;;;24.04;39.64;101877.98;109232;1254;124219;-87
2023/08/11 08:01:24;;;;;;;;;;;;;;;23.87;39.61;101879.45;109022;1256;73272;-87
2023/08/11 08:03:58;;;;;;;;;;;;;;;23.70;39.58;101880.50;109143;1260;65846;-86
2023/08/11 08:06:27;;;;;;;;;;;;;;;23.61;39.59;101881.67;109144;1255;72868;-87
2023/08/11 08:09:18;;;;;;;;;;;;;;;23.54;39.86;101876.21;109396;1254;59282;-88
2023/08/11 08:11:51;;;;;;;;;;;;;;;23.56;39.98;101879.58;109000;1254;125147;-88
2023/08/11 08:14:20;;;;;;;;;;;;;;;23.62;39.90;101880.77;109075;1254;74243;-87
2023/08/11 08:16:47;;;;;;;;;;;;;;;23.70;39.60;101880.14;109109;1254;124995;-87
2023/08/11 08:19:18;;;;;;;;;;;;;;;23.77;39.34;101882.94;109322;1253;71445;-87
2023/08/11 08:22:06;;;;;;;;;;;;;;;23.85;39.48;101885.56;109115;1254;58961;-87
2023/08/11 08:24:35;;;;;;;;;;;;;;;23.85;39.13;101891.29;109373;1254;59647;-85
2023/08/11 08:27:05;;;;;;;;;;;;;;;23.78;39.09;101891.71;109249;1254;75271;-83
2023/08/11 08:29:56;;;;;;;;;;;;;;;23.71;39.38;101894.48;109072;1254;124273;-83
2023/08/11 08:32:29;;;;;;;;;;;;;;;23.76;39.25;101891.56;109277;1254;73295;-83
2023/08/11 08:35:03;;;;;;;;;;;;;;;23.84;39.16;101894.36;109034;1254;124266;-83
2023/08/11 08:37:31;;;;;;;;;;;;;;;23.90;38.91;101889.45;109166;1254;59389;-83
2023/08/11 08:39:58;;;;;;;;;;;;;;;24.03;38.88;101888.92;109037;1253;75049;-83
2023/08/11 08:42:26;;;;;;;;;;;;;;;24.14;38.75;101884.30;109031;1254;124160;-85
2023/08/11 08:44:53;;;;;;;;;;;;;;;24.28;38.78;101886.98;109155;1254;71791;-84
2023/08/11 08:47:43;;;;;;;;;;;;;;;24.40;38.80;101885.90;109132;1255;124656;-84
2023/08/11 08:50:11;;;;;;;;;;;;;;;24.50;38.94;101887.73;109139;1254;60091;-85
2023/08/11 08:52:40;;;;;;;;;;;;;;;24.53;38.76;101892.92;109008;1254;124741;-85
2023/08/11 08:55:11;;;;;;;;;;;;;;;24.53;38.44;101893.65;109158;1253;66878;-85
2023/08/11 08:57:55;;;;;;;;;;;;;;;24.38;38.28;101892.92;109058;1254;72577;-84
2023/08/11 09:00:26;;;;;;;;;;;;;;;24.22;38.54;101893.69;109064;1255;124251;-84
2023/08/11 09:02:54;;;;;;;;;;;;;;;24.02;38.62;101898.98;109292;1254;60148;-84
2023/08/11 09:05:47;;;;;;;;;;;;;;;23.76;38.72;101897.65;109212;1254;124500;-84
2023/08/11 09:08:14;;;;;;;;;;;;;;;23.58;38.91;101896.95;108995;1254;66932;-84
2023/08/11 09:10:41;;;;;;;;;;;;;;;23.44;39.10;101891.89;109055;1256;124433;-83
2023/08/11 09:13:18;;;;;;;;;;;;;;;23.30;38.98;101891.33;109090;1254;59059;-88
2023/08/11 09:15:46;;;;;;;;;;;;;;;23.13;38.86;101884.14;109143;1254;60279;-85
2023/08/11 09:18:22;;;;;;;;;;;;;;;22.97;39.18;101887.11;109043;1253;124152;-87
2023/08/11 09:21:06;;;;;;;;;;;;;;;22.86;40.06;101885.58;109151;1255;67207;-87
2023/08/11 09:23:33;;;;;;;;;;;;;;;22.81;40.17;101884.73;109234;1254;124115;-86
2023/08/11 09:26:03;;;;;;;;;;;;;;;22.80;40.38;101887.08;109021;1261;59494;-86
2023/08/11 09:28:46;;;;;;;;;;;;;;;22.80;40.77;101887.95;109060;1256;124357;-86
2023/08/11 09:31:13;;;;;;;;;;;;;;;22.72;40.47;101888.92;109131;1257;73662;-85
2023/08/11 09:33:40;;;;;;;;;;;;;;;22.62;40.71;101891.66;108999;1257;65815;-87
2023/08/11 09:36:19;;;;;;;;;;;;;;;22.62;40.70;101892.21;109148;1256;124329;-88
2023/08/11 09:38:48;;;;;;;;;;;;;;;22.69;40.36;101891.81;109210;1257;59073;-87
2023/08/11 09:41:17;;;;;;;;;;;;;;;22.69;40.15;101887.50;109040;1256;123091;-88
2023/08/11 09:43:47;;;;;;;;;;;;;;;22.69;40.10;101886.79;109266;1256;74723;-87
2023/08/11 09:46:14;;;;;;;;;;;;;;;22.65;39.84;101885.20;109028;1255;124150;-87
2023/08/11 09:48:42;;;;;;;;;;;;;;;22.65;40.09;101885.91;109073;1257;70968;-86
2023/08/11 09:51:30;;;;;;;;;;;;;;;22.65;40.00;101883.41;109126;1257;59316;-87
2023/08/11 09:53:58;;;;;;;;;;;;;;;22.59;40.12;101888.46;108960;1255;124275;-88
2023/08/11 09:56:29;;;;;;;;;;;;;;;22.54;39.82;101887.79;108990;1255;73232;-87
2023/08/11 09:59:13;;;;;;;;;;;;;;;22.57;39.97;101886.33;109048;1257;122900;-88
2023/08/11 10:01:42;;;;;;;;;;;;;;;22.80;40.33;101882.40;109102;1256;72850;-87
2023/08/11 10:04:43;;;;;;;;;;;;;;;23.15;40.35;101878.02;104153;1292;600328;-87
2023/08/11 10:07:20;;;;;;;;;;;;;;;23.52;40.09;101878.20;106584;1269;59027;-87
2023/08/11 10:10:14;;;;;;;;;;;;;;;23.69;39.44;101878.00;106771;1269;59742;-87
2023/08/11 10:12:55;;;;;;;;;;;;;;;23.86;39.40;101885.38;107297;1257;72195;-88
2023/08/11 10:15:22;;;;;;;;;;;;;;;23.90;39.07;101884.61;107177;1260;67453;-88
2023/08/11 10:18:17;;;;;;;;;;;;;;;23.94;39.16;101883.48;99529;1254;10207717;-89
2023/08/11 10:20:46;;;;;;;;;;;;;;;24.11;39.51;101881.83;107482;1257;59273;-87
2023/08/11 10:23:16;;;;;;;;;;;;;;;24.36;39.72;101880.21;107641;1260;123600;-87
2023/08/11 10:25:50;;;;;;;;;;;;;;;24.58;39.14;101879.04;107758;1259;66876;-86
2023/08/11 10:28:17;;;;;;;;;;;;;;;24.66;38.69;101878.55;107493;1254;123545;-87
2023/08/11 10:30:47;;;;;;;;;;;;;;;24.71;38.61;101878.11;107629;1254;59675;-87
2023/08/11 10:33:14;;;;;;;;;;;;;;;24.65;38.56;101880.88;107924;1254;59813;-87
2023/08/11 10:36:07;;;;;;;;;;;;;;;24.54;38.77;101879.98;107532;1254;124042;-88
2023/08/11 10:38:39;;;;;;;;;;;;;;;24.41;38.60;101882.66;107463;1256;67456;-86
2023/08/11 10:41:08;;;;;;;;;;;;;;;24.26;38.44;101880.90;107387;1254;123697;-86
2023/08/11 10:43:38;;;;;;;;;;;;;;;24.18;38.61;101888.35;107262;1257;59766;-87
2023/08/11 10:46:21;;;;;;;;;;;;;;;24.18;38.72;101885.50;107505;1254;59964;-87
2023/08/11 10:49:07;;;;;;;;;;;;;;;24.14;38.58;101885.55;107614;1254;73153;-87
2023/08/11 10:51:37;;;;;;;;;;;;;;;24.23;38.85;101879.69;107434;1253;66031;-88
2023/08/11 10:54:11;;;;;;;;;;;;;;;24.26;38.60;101879.10;107299;1254;123735;-86
2023/08/11 10:56:39;;;;;;;;;;;;;;;24.18;38.26;101874.36;107706;1254;59624;-87
2023/08/11 10:59:30;;;;;;;;;;;;;;;24.11;38.33;101881.11;107862;1253;123454;-86
2023/08/11 11:01:59;;;;;;;;;;;;;;;24.01;38.14;101877.65;107784;1254;71770;-88
2023/08/11 11:04:29;;;;;;;;;;;;;;;24.05;38.00;101872.92;107861;1254;123517;-86
2023/08/11 11:06:56;;;;;;;;;;;;;;;24.22;38.09;101866.60;107795;1254;71138;-85
2023/08/11 11:09:33;;;;;;;;;;;;;;;24.50;38.01;101862.80;107565;1254;59882;-87
2023/08/11 11:12:00;;;;;;;;;;;;;;;24.66;37.64;101863.12;107531;1254;123380;-83
2023/08/11 11:14:40;;;;;;;;;;;;;;;24.84;37.72;101864.09;107725;1253;74124;-87
2023/08/11 11:17:14;;;;;;;;;;;;;;;25.06;37.61;101866.40;107405;1254;123417;-85
2023/08/11 11:19:41;;;;;;;;;;;;;;;25.25;37.32;101864.98;107542;1254;72473;-85
2023/08/11 11:22:13;;;;;;;;;;;;;;;25.35;37.09;101860.88;107463;1254;59822;-88
2023/08/11 11:24:40;;;;;;;;;;;;;;;25.23;36.92;101868.81;107682;1256;123516;-88
2023/08/11 11:27:07;;;;;;;;;;;;;;;25.05;36.74;101866.06;107558;1259;73825;-87
2023/08/11 11:29:36;;;;;;;;;;;;;;;24.83;36.75;101870.00;107290;1256;123470;-86
2023/08/11 11:32:06;;;;;;;;;;;;;;;24.68;36.86;101870.80;107577;1256;71134;-87
2023/08/11 11:34:36;;;;;;;;;;;;;;;24.55;37.03;101873.69;107521;1255;123935;-86
2023/08/11 11:37:03;;;;;;;;;;;;;;;24.51;37.23;101874.45;107414;1256;59688;-86
2023/08/11 11:39:31;;;;;;;;;;;;;;;24.52;37.27;101871.58;107374;1254;73083;-88
2023/08/11 11:42:17;;;;;;;;;;;;;;;24.54;37.08;101870.84;107390;1256;123463;-88
2023/08/11 11:44:46;;;;;;;;;;;;;;;24.56;37.04;101866.32;107347;1256;72527;-88
2023/08/11 11:47:20;;;;;;;;;;;;;;;24.62;36.85;101868.73;107333;1253;124003;-86
2023/08/11 11:49:57;;;;;;;;;;;;;;;24.65;37.10;101868.33;107208;1256;59515;-89
2023/08/11 11:52:36;;;;;;;;;;;;;;;24.55;36.75;101870.80;107360;1259;125307;-92
2023/08/11 11:55:44;;;;;;;;;;;;;;;24.29;36.65;101872.78;107513;1260;67933;-88
2023/08/11 11:58:11;;;;;;;;;;;;;;;24.09;37.00;101875.40;107637;1254;71753;-87
2023/08/11 12:00:53;;;;;;;;;;;;;;;24.02;37.23;101879.43;107739;1254;59138;-88
2023/08/11 12:03:27;;;;;;;;;;;;;;;23.98;37.18;101879.31;107745;1257;59795;-89
2023/08/11 12:06:21;;;;;;;;;;;;;;;24.02;37.40;101877.28;107714;1254;123888;-88
2023/08/11 12:09:08;;;;;;;;;;;;;;;24.08;37.36;101874.69;107593;1254;66843;-86
2023/08/11 12:14:33;;;;;;;;;;;;;;;24.08;37.41;101870.21;107542;1254;59542;-86
2023/08/11 12:17:02;;;;;;;;;;;;;;;24.11;37.55;101868.20;107458;1254;123605;-89
2023/08/11 12:19:31;;;;;;;;;;;;;;;24.25;37.52;101870.50;107505;1254;72259;-87
2023/08/11 12:22:04;;;;;;;;;;;;;;;24.42;37.41;101865.77;107393;1254;65566;-89
2023/08/11 12:24:31;;;;;;;;;;;;;;;24.51;37.23;101869.06;107365;1254;123522;-89
2023/08/11 12:27:09;;;;;;;;;;;;;;;24.59;37.11;101868.26;107446;1256;59833;-87
2023/08/11 12:29:41;;;;;;;;;;;;;;;24.77;37.03;101866.53;107397;1256;123582;-87
2023/08/11 12:32:10;;;;;;;;;;;;;;;24.96;36.77;101865.85;107488;1254;72946;-87
2023/08/11 12:34:37;;;;;;;;;;;;;;;25.15;36.85;101865.52;107422;1257;123545;-86
2023/08/11 12:37:07;;;;;;;;;;;;;;;25.30;36.74;101861.69;107659;1254;71042;-87
2023/08/11 12:39:34;;;;;;;;;;;;;;;25.44;36.62;101862.84;107667;1255;59642;-90
2023/08/11 12:45:18;;;;;;;;;;;;;;;25.46;35.95;101865.15;107594;1256;71852;-88
2023/08/11 12:47:45;;;;;;;;;;;;;;;25.53;36.30;101864.49;107456;1256;123810;-89
2023/08/11 12:50:46;;;;;;;;;;;;;;;25.67;36.26;101862.23;107271;1254;72474;-85
2023/08/11 12:53:16;;;;;;;;;;;;;;;25.75;36.14;101867.09;107226;1254;124201;-89
2023/08/11 12:55:45;;;;;;;;;;;;;;;25.70;36.08;101867.55;107363;1255;60196;-87
2023/08/11 12:58:18;;;;;;;;;;;;;;;25.74;36.03;101869.98;107105;1254;74788;-88
2023/08/11 13:04:20;;;;;;;;;;;;;;;25.67;35.70;101873.73;107463;1254;72688;-86
2023/08/11 13:07:19;;;;;;;;;;;;;;;25.74;35.79;101875.57;107401;1254;123490;-89
2023/08/11 13:09:46;;;;;;;;;;;;;;;25.93;35.79;101873.92;107005;1259;59567;-87
2023/08/11 13:12:23;;;;;;;;;;;;;;;26.05;35.62;101869.73;106922;1260;123718;-88
2023/08/11 13:14:54;;;;;;;;;;;;;;;26.07;35.54;101866.45;107071;1260;67186;-86
2023/08/11 13:17:56;;;;;;;;;;;;;;;26.09;35.52;101864.61;106926;1260;124255;-86